CheckWX is a tool to help pilots better visualize weather data.  It is not intended as a substitute for an official pre-flight weather briefing.

03:59:40 UTC

CYWH METAR
Victoria Harbour Seaplane Base
Victoria, Canada
Current

2 hours ago

CYWH 020200Z 23012KT 15SM FEW050 15/08 A3018 RMK SC1 LAST STFD OBS/NXT 021400Z SLP222
Observed
Jun-2 @ 02:00 UTC
Wind
  • 230° at 12 KTS
Visibility
Flight Rules
VFR
Cloud Levels
  • Few at 5,000' AGL
Temperature
15°C / 59°F
Dewpoint
C / 46°F
Humidity
63%
Altimeter
30.18" Hg
Pressure
1022.02 hPa
Previous

3 hours ago

CYWH 020100Z 21010KT 15SM FEW040 FEW080 16/08 A3018 RMK CU1AC1 SLP223
Observed
Jun-2 @ 01:00 UTC
Wind
  • 210° at 10 KTS
Visibility
Flight Rules
VFR
Cloud Levels
  • Few at 4,000' AGL
  • Few at 8,000' AGL
Temperature
16°C / 61°F
Dewpoint
C / 46°F
Humidity
59%
Altimeter
30.18" Hg
Pressure
1022.02 hPa
Previous

4 hours ago

CYWH 020000Z 19006KT 140V220 15SM FEW040 FEW070 14/09 A3018 RMK CU1AC1 SLP221
Observed
Jun-2 @ 00:00 UTC
Wind
  • 190° at 6 KTS
Visibility
Flight Rules
VFR
Cloud Levels
  • Few at 4,000' AGL
  • Few at 7,000' AGL
Temperature
14°C / 57°F
Dewpoint
C / 48°F
Humidity
72%
Altimeter
30.18" Hg
Pressure
1022.02 hPa